sensor_id;sensor_type;location;lat;lon;timestamp;pressure;altitude;pressure_sealevel;temperature;humidity
39267;BME280;24967;51.154;13.812;2023-04-01T00:01:45;97704.28;;;10.10;90.16
39267;BME280;24967;51.154;13.812;2023-04-01T00:04:11;97702.53;;;9.96;92.41
39267;BME280;24967;51.154;13.812;2023-04-01T00:06:37;97703.53;;;9.95;93.51
39267;BME280;24967;51.154;13.812;2023-04-01T00:09:04;97701.63;;;10.10;92.11
39267;BME280;24967;51.154;13.812;2023-04-01T00:11:30;97707.56;;;10.34;91.03
39267;BME280;24967;51.154;13.812;2023-04-01T00:13:57;97702.56;;;10.24;91.54
39267;BME280;24967;51.154;13.812;2023-04-01T00:16:23;97704.66;;;10.07;92.14
39267;BME280;24967;51.154;13.812;2023-04-01T00:18:51;97701.91;;;9.94;92.39
39267;BME280;24967;51.154;13.812;2023-04-01T00:21:18;97706.91;;;10.31;91.47
39267;BME280;24967;51.154;13.812;2023-04-01T00:23:45;97700.75;;;10.03;92.33
39267;BME280;24967;51.154;13.812;2023-04-01T00:26:12;97711.47;;;10.16;91.92
39267;BME280;24967;51.154;13.812;2023-04-01T00:28:39;97709.72;;;10.23;91.45
39267;BME280;24967;51.154;13.812;2023-04-01T00:31:07;97708.16;;;10.29;91.34
39267;BME280;24967;51.154;13.812;2023-04-01T00:33:34;97706.84;;;10.25;91.23
39267;BME280;24967;51.154;13.812;2023-04-01T00:36:09;97705.78;;;10.19;91.45
39267;BME280;24967;51.154;13.812;2023-04-01T00:38:37;97710.88;;;10.14;92.29
39267;BME280;24967;51.154;13.812;2023-04-01T00:41:05;97701.09;;;10.21;91.69
39267;BME280;24967;51.154;13.812;2023-04-01T00:43:31;97701.88;;;10.15;93.35
39267;BME280;24967;51.154;13.812;2023-04-01T00:45:58;97708.22;;;9.93;94.23
39267;BME280;24967;51.154;13.812;2023-04-01T00:48:28;97708.47;;;9.98;93.63
39267;BME280;24967;51.154;13.812;2023-04-01T00:50:58;97708.28;;;9.99;94.05
39267;BME280;24967;51.154;13.812;2023-04-01T00:53:28;97715.63;;;10.25;92.20
39267;BME280;24967;51.154;13.812;2023-04-01T00:55:59;97704.09;;;10.12;93.16
39267;BME280;24967;51.154;13.812;2023-04-01T00:58:27;97710.69;;;10.22;92.57
39267;BME280;24967;51.154;13.812;2023-04-01T01:00:56;97713.56;;;10.21;92.91
39267;BME280;24967;51.154;13.812;2023-04-01T01:03:25;97709.72;;;10.23;91.91
39267;BME280;24967;51.154;13.812;2023-04-01T01:06:03;97707.66;;;10.25;92.60
39267;BME280;24967;51.154;13.812;2023-04-01T01:08:46;97705.56;;;10.14;92.87
39267;BME280;24967;51.154;13.812;2023-04-01T01:11:22;97697.47;;;10.01;93.67
39267;BME280;24967;51.154;13.812;2023-04-01T01:13:58;97699.63;;;9.91;94.59
39267;BME280;24967;51.154;13.812;2023-04-01T01:16:29;97709.44;;;10.18;92.71
39267;BME280;24967;51.154;13.812;2023-04-01T01:19:05;97705.00;;;9.97;93.33
39267;BME280;24967;51.154;13.812;2023-04-01T01:21:47;97697.50;;;10.07;93.12
39267;BME280;24967;51.154;13.812;2023-04-01T01:27:20;97699.56;;;10.05;92.55
39267;BME280;24967;51.154;13.812;2023-04-01T01:30:10;97699.25;;;9.94;92.79
39267;BME280;24967;51.154;13.812;2023-04-01T01:33:21;97698.16;;;10.09;92.04
39267;BME280;24967;51.154;13.812;2023-04-01T01:35:52;97691.38;;;10.07;90.99
39267;BME280;24967;51.154;13.812;2023-04-01T01:38:22;97694.28;;;10.12;90.53
39267;BME280;24967;51.154;13.812;2023-04-01T01:40:51;97691.47;;;10.14;89.98
39267;BME280;24967;51.154;13.812;2023-04-01T01:43:22;97698.56;;;10.13;89.95
39267;BME280;24967;51.154;13.812;2023-04-01T01:45:52;97701.22;;;10.13;89.78
39267;BME280;24967;51.154;13.812;2023-04-01T01:48:20;97697.59;;;10.14;89.67
39267;BME280;24967;51.154;13.812;2023-04-01T01:50:47;97701.69;;;10.17;89.29
39267;BME280;24967;51.154;13.812;2023-04-01T01:53:16;97691.06;;;9.95;89.84
39267;BME280;24967;51.154;13.812;2023-04-01T01:55:44;97697.16;;;10.11;89.31
39267;BME280;24967;51.154;13.812;2023-04-01T01:58:14;97698.97;;;10.10;89.05
39267;BME280;24967;51.154;13.812;2023-04-01T02:00:43;97695.78;;;10.21;88.59
39267;BME280;24967;51.154;13.812;2023-04-01T02:03:12;97702.00;;;10.28;88.76
39267;BME280;24967;51.154;13.812;2023-04-01T02:05:39;97697.91;;;10.04;89.20
39267;BME280;24967;51.154;13.812;2023-04-01T02:08:09;97702.47;;;10.11;89.96
39267;BME280;24967;51.154;13.812;2023-04-01T02:10:42;97695.72;;;9.86;91.11
39267;BME280;24967;51.154;13.812;2023-04-01T02:13:16;97705.44;;;10.01;91.08
39267;BME280;24967;51.154;13.812;2023-04-01T02:15:47;97698.06;;;9.96;91.94
39267;BME280;24967;51.154;13.812;2023-04-01T02:18:18;97696.47;;;10.02;91.56
39267;BME280;24967;51.154;13.812;2023-04-01T02:20:45;97700.56;;;9.83;92.52
39267;BME280;24967;51.154;13.812;2023-04-01T02:23:12;97688.56;;;10.08;91.78
39267;BME280;24967;51.154;13.812;2023-04-01T02:25:41;97705.88;;;9.83;92.06
39267;BME280;24967;51.154;13.812;2023-04-01T02:28:09;97707.53;;;9.84;92.10
39267;BME280;24967;51.154;13.812;2023-04-01T02:30:38;97705.72;;;10.13;90.99
39267;BME280;24967;51.154;13.812;2023-04-01T02:33:05;97704.91;;;10.12;90.72
39267;BME280;24967;51.154;13.812;2023-04-01T02:35:33;97703.19;;;10.04;90.86
39267;BME280;24967;51.154;13.812;2023-04-01T02:38:00;97711.31;;;9.96;91.06
39267;BME280;24967;51.154;13.812;2023-04-01T02:40:27;97704.59;;;10.00;90.81
39267;BME280;24967;51.154;13.812;2023-04-01T02:42:55;97710.44;;;10.11;90.33
39267;BME280;24967;51.154;13.812;2023-04-01T02:45:21;97716.97;;;9.86;90.07
39267;BME280;24967;51.154;13.812;2023-04-01T02:47:48;97711.63;;;10.08;89.54
39267;BME280;24967;51.154;13.812;2023-04-01T02:50:14;97718.19;;;10.34;88.36
39267;BME280;24967;51.154;13.812;2023-04-01T02:52:41;97715.00;;;10.23;88.27
39267;BME280;24967;51.154;13.812;2023-04-01T02:55:08;97722.34;;;10.21;88.51
39267;BME280;24967;51.154;13.812;2023-04-01T02:57:34;97718.13;;;10.05;88.87
39267;BME280;24967;51.154;13.812;2023-04-01T03:00:03;97719.78;;;10.06;88.62
39267;BME280;24967;51.154;13.812;2023-04-01T03:02:35;97725.38;;;10.18;88.34
39267;BME280;24967;51.154;13.812;2023-04-01T03:05:02;97734.81;;;10.21;87.39
39267;BME280;24967;51.154;13.812;2023-04-01T03:07:29;97735.53;;;10.29;87.31
39267;BME280;24967;51.154;13.812;2023-04-01T03:09:55;97726.03;;;10.20;87.30
39267;BME280;24967;51.154;13.812;2023-04-01T03:12:22;97735.06;;;10.26;87.03
39267;BME280;24967;51.154;13.812;2023-04-01T03:14:48;97727.47;;;10.23;86.93
39267;BME280;24967;51.154;13.812;2023-04-01T03:17:16;97739.38;;;10.05;86.85
39267;BME280;24967;51.154;13.812;2023-04-01T03:19:42;97733.03;;;10.28;86.78
39267;BME280;24967;51.154;13.812;2023-04-01T03:22:10;97731.47;;;10.12;86.84
39267;BME280;24967;51.154;13.812;2023-04-01T03:24:37;97736.38;;;10.15;87.23
39267;BME280;24967;51.154;13.812;2023-04-01T03:27:03;97725.09;;;10.06;87.59
39267;BME280;24967;51.154;13.812;2023-04-01T03:29:29;97743.66;;;10.06;87.51
39267;BME280;24967;51.154;13.812;2023-04-01T03:31:56;97737.63;;;10.19;86.60
39267;BME280;24967;51.154;13.812;2023-04-01T03:34:24;97730.00;;;10.09;86.47
39267;BME280;24967;51.154;13.812;2023-04-01T03:36:51;97731.28;;;10.14;86.15
39267;BME280;24967;51.154;13.812;2023-04-01T03:39:17;97740.44;;;10.11;85.53
39267;BME280;24967;51.154;13.812;2023-04-01T03:41:44;97736.97;;;10.11;85.34
39267;BME280;24967;51.154;13.812;2023-04-01T03:44:11;97744.47;;;10.07;86.20
39267;BME280;24967;51.154;13.812;2023-04-01T03:46:37;97733.84;;;10.07;85.77
39267;BME280;24967;51.154;13.812;2023-04-01T03:49:06;97738.66;;;10.18;85.44
39267;BME280;24967;51.154;13.812;2023-04-01T03:51:37;97752.00;;;10.25;84.71
39267;BME280;24967;51.154;13.812;2023-04-01T03:54:04;97748.97;;;10.28;84.62
39267;BME280;24967;51.154;13.812;2023-04-01T03:56:31;97753.00;;;10.24;84.89
39267;BME280;24967;51.154;13.812;2023-04-01T03:59:01;97753.34;;;10.14;85.17
39267;BME280;24967;51.154;13.812;2023-04-01T04:01:28;97752.97;;;10.17;85.46
39267;BME280;24967;51.154;13.812;2023-04-01T04:03:56;97747.13;;;10.28;84.79
39267;BME280;24967;51.154;13.812;2023-04-01T04:06:23;97756.44;;;10.18;84.70
39267;BME280;24967;51.154;13.812;2023-04-01T04:08:51;97756.44;;;10.18;84.68
39267;BME280;24967;51.154;13.812;2023-04-01T04:11:18;97752.19;;;10.23;84.19
39267;BME280;24967;51.154;13.812;2023-04-01T04:13:45;97757.88;;;10.20;84.27
39267;BME280;24967;51.154;13.812;2023-04-01T04:16:13;97754.53;;;10.12;83.84
39267;BME280;24967;51.154;13.812;2023-04-01T04:18:40;97750.88;;;10.13;84.47
39267;BME280;24967;51.154;13.812;2023-04-01T04:21:06;97758.22;;;10.60;82.52
39267;BME280;24967;51.154;13.812;2023-04-01T04:23:33;97766.03;;;10.40;82.63
39267;BME280;24967;51.154;13.812;2023-04-01T04:26:03;97764.16;;;10.34;82.92
39267;BME280;24967;51.154;13.812;2023-04-01T04:28:31;97761.50;;;10.34;82.98
39267;BME280;24967;51.154;13.812;2023-04-01T04:30:57;97760.97;;;10.45;82.15
39267;BME280;24967;51.154;13.812;2023-04-01T04:33:24;97769.28;;;10.36;82.83
39267;BME280;24967;51.154;13.812;2023-04-01T04:35:55;97776.44;;;10.35;82.39
39267;BME280;24967;51.154;13.812;2023-04-01T04:38:22;97773.31;;;10.31;82.29
39267;BME280;24967;51.154;13.812;2023-04-01T04:40:48;97777.56;;;10.26;82.46
39267;BME280;24967;51.154;13.812;2023-04-01T04:43:17;97776.59;;;10.34;81.90
39267;BME280;24967;51.154;13.812;2023-04-01T04:45:44;97771.59;;;10.45;81.48
39267;BME280;24967;51.154;13.812;2023-04-01T04:48:12;97778.25;;;10.35;81.78
39267;BME280;24967;51.154;13.812;2023-04-01T04:50:44;97773.06;;;10.48;81.11
39267;BME280;24967;51.154;13.812;2023-04-01T04:53:10;97780.75;;;10.43;81.42
39267;BME280;24967;51.154;13.812;2023-04-01T04:55:37;97783.53;;;10.13;81.90
39267;BME280;24967;51.154;13.812;2023-04-01T04:58:03;97785.81;;;10.38;81.32
39267;BME280;24967;51.154;13.812;2023-04-01T05:00:31;97790.50;;;10.14;81.55
39267;BME280;24967;51.154;13.812;2023-04-01T05:02:57;97786.41;;;10.12;81.77
39267;BME280;24967;51.154;13.812;2023-04-01T05:05:24;97793.16;;;10.14;81.64
39267;BME280;24967;51.154;13.812;2023-04-01T05:07:50;97792.81;;;10.39;81.15
39267;BME280;24967;51.154;13.812;2023-04-01T05:10:17;97795.38;;;10.11;81.05
39267;BME280;24967;51.154;13.812;2023-04-01T05:12:43;97797.72;;;10.20;81.46
39267;BME280;24967;51.154;13.812;2023-04-01T05:15:10;97799.69;;;10.33;80.94
39267;BME280;24967;51.154;13.812;2023-04-01T05:17:38;97802.66;;;10.45;80.88
39267;BME280;24967;51.154;13.812;2023-04-01T05:20:07;97808.91;;;10.37;80.74
39267;BME280;24967;51.154;13.812;2023-04-01T05:22:33;97803.53;;;10.52;80.31
39267;BME280;24967;51.154;13.812;2023-04-01T05:24:59;97811.69;;;10.50;80.16
39267;BME280;24967;51.154;13.812;2023-04-01T05:27:26;97816.16;;;10.07;82.03
39267;BME280;24967;51.154;13.812;2023-04-01T05:29:52;97822.81;;;10.18;82.51
39267;BME280;24967;51.154;13.812;2023-04-01T05:32:19;97826.22;;;10.12;83.28
39267;BME280;24967;51.154;13.812;2023-04-01T05:34:50;97820.41;;;10.23;83.12
39267;BME280;24967;51.154;13.812;2023-04-01T05:37:16;97828.38;;;10.23;82.71
39267;BME280;24967;51.154;13.812;2023-04-01T05:39:43;97825.09;;;9.99;83.55
39267;BME280;24967;51.154;13.812;2023-04-01T05:42:09;97818.69;;;9.94;84.39
39267;BME280;24967;51.154;13.812;2023-04-01T05:44:36;97819.19;;;10.25;83.30
39267;BME280;24967;51.154;13.812;2023-04-01T05:47:03;97824.81;;;10.30;83.37
39267;BME280;24967;51.154;13.812;2023-04-01T05:49:31;97829.28;;;10.51;82.34
39267;BME280;24967;51.154;13.812;2023-04-01T05:51:58;97829.47;;;10.28;83.29
39267;BME280;24967;51.154;13.812;2023-04-01T05:54:25;97826.53;;;10.38;82.72
39267;BME280;24967;51.154;13.812;2023-04-01T05:56:51;97832.84;;;10.22;83.11
39267;BME280;24967;51.154;13.812;2023-04-01T05:59:18;97825.53;;;10.46;81.64
39267;BME280;24967;51.154;13.812;2023-04-01T06:01:44;97829.88;;;10.47;81.95
39267;BME280;24967;51.154;13.812;2023-04-01T06:04:14;97828.81;;;10.69;80.76
39267;BME280;24967;51.154;13.812;2023-04-01T06:06:41;97835.31;;;10.39;81.15
39267;BME280;24967;51.154;13.812;2023-04-01T06:09:13;97824.56;;;10.47;81.25
39267;BME280;24967;51.154;13.812;2023-04-01T06:11:51;97831.56;;;10.54;81.28
39267;BME280;24967;51.154;13.812;2023-04-01T06:14:30;97835.53;;;10.65;80.55
39267;BME280;24967;51.154;13.812;2023-04-01T06:17:14;97834.06;;;10.63;80.70
39267;BME280;24967;51.154;13.812;2023-04-01T06:19:50;97836.09;;;10.89;79.94
39267;BME280;24967;51.154;13.812;2023-04-01T06:22:35;97836.66;;;10.77;79.79
39267;BME280;24967;51.154;13.812;2023-04-01T06:25:24;97837.03;;;10.74;79.97
39267;BME280;24967;51.154;13.812;2023-04-01T06:28:05;97832.50;;;11.03;79.85
39267;BME280;24967;51.154;13.812;2023-04-01T06:30:41;97836.16;;;10.95;79.41
39267;BME280;24967;51.154;13.812;2023-04-01T06:33:18;97838.31;;;10.85;79.14
39267;BME280;24967;51.154;13.812;2023-04-01T06:36:02;97838.31;;;10.85;79.86
39267;BME280;24967;51.154;13.812;2023-04-01T06:38:45;97834.97;;;10.76;79.55
39267;BME280;24967;51.154;13.812;2023-04-01T06:41:34;97843.69;;;10.92;80.57
39267;BME280;24967;51.154;13.812;2023-04-01T06:44:14;97840.03;;;10.93;80.33
39267;BME280;24967;51.154;13.812;2023-04-01T06:46:45;97843.06;;;10.90;79.58
39267;BME280;24967;51.154;13.812;2023-04-01T06:49:32;97845.69;;;10.62;81.13
39267;BME280;24967;51.154;13.812;2023-04-01T06:52:03;97842.59;;;11.08;80.83
39267;BME280;24967;51.154;13.812;2023-04-01T06:54:36;97846.03;;;11.02;80.35
39267;BME280;24967;51.154;13.812;2023-04-01T06:57:10;97854.63;;;11.10;80.01
39267;BME280;24967;51.154;13.812;2023-04-01T06:59:45;97847.63;;;10.96;79.89
39267;BME280;24967;51.154;13.812;2023-04-01T07:02:20;97856.25;;;10.76;80.13
39267;BME280;24967;51.154;13.812;2023-04-01T07:04:51;97857.75;;;10.86;80.32
39267;BME280;24967;51.154;13.812;2023-04-01T07:07:26;97852.44;;;10.86;79.46
39267;BME280;24967;51.154;13.812;2023-04-01T07:09:57;97850.06;;;10.97;79.21
39267;BME280;24967;51.154;13.812;2023-04-01T07:12:36;97850.41;;;10.88;78.17
39267;BME280;24967;51.154;13.812;2023-04-01T07:15:14;97846.75;;;11.23;77.87
39267;BME280;24967;51.154;13.812;2023-04-01T07:17:43;97850.22;;;11.24;77.27
39267;BME280;24967;51.154;13.812;2023-04-01T07:20:15;97864.81;;;11.00;77.63
39267;BME280;24967;51.154;13.812;2023-04-01T07:22:46;97863.00;;;11.07;77.35
39267;BME280;24967;51.154;13.812;2023-04-01T07:25:17;97860.63;;;11.19;77.13
39267;BME280;24967;51.154;13.812;2023-04-01T07:27:45;97865.44;;;11.37;76.96
39267;BME280;24967;51.154;13.812;2023-04-01T07:30:15;97861.44;;;11.19;76.47
39267;BME280;24967;51.154;13.812;2023-04-01T07:32:44;97864.50;;;11.16;77.19
39267;BME280;24967;51.154;13.812;2023-04-01T07:35:22;97865.66;;;11.07;76.26
39267;BME280;24967;51.154;13.812;2023-04-01T07:38:05;97869.31;;;10.99;77.04
39267;BME280;24967;51.154;13.812;2023-04-01T07:40:42;97866.63;;;11.28;76.93
39267;BME280;24967;51.154;13.812;2023-04-01T07:43:36;97863.84;;;11.08;76.32
39267;BME280;24967;51.154;13.812;2023-04-01T07:46:14;97869.31;;;11.34;75.58
39267;BME280;24967;51.154;13.812;2023-04-01T07:48:48;97886.72;;;11.02;75.80
39267;BME280;24967;51.154;13.812;2023-04-01T07:51:22;97869.31;;;10.99;76.13
39267;BME280;24967;51.154;13.812;2023-04-01T07:53:56;97882.22;;;11.03;76.56
39267;BME280;24967;51.154;13.812;2023-04-01T07:56:28;97880.75;;;11.28;75.76
39267;BME280;24967;51.154;13.812;2023-04-01T07:59:06;97882.50;;;11.49;75.53
39267;BME280;24967;51.154;13.812;2023-04-01T08:01:42;97885.38;;;11.48;75.23
39267;BME280;24967;51.154;13.812;2023-04-01T08:04:25;97890.72;;;11.54;75.16
39267;BME280;24967;51.154;13.812;2023-04-01T08:06:59;97890.84;;;11.74;74.83
39267;BME280;24967;51.154;13.812;2023-04-01T08:09:36;97885.38;;;11.48;74.25
39267;BME280;24967;51.154;13.812;2023-04-01T08:12:17;97889.69;;;11.55;74.92
39267;BME280;24967;51.154;13.812;2023-04-01T08:14:54;97898.31;;;11.57;73.79
39267;BME280;24967;51.154;13.812;2023-04-01T08:17:28;97900.81;;;11.65;74.18
39267;BME280;24967;51.154;13.812;2023-04-01T08:20:10;97896.63;;;11.50;74.64
39267;BME280;24967;51.154;13.812;2023-04-01T08:22:42;97902.78;;;11.50;74.39
39267;BME280;24967;51.154;13.812;2023-04-01T08:25:13;97906.06;;;11.52;74.82
39267;BME280;24967;51.154;13.812;2023-04-01T08:27:45;97898.38;;;11.70;74.58
39267;BME280;24967;51.154;13.812;2023-04-01T08:30:20;97904.72;;;11.69;75.06
39267;BME280;24967;51.154;13.812;2023-04-01T08:32:49;97896.97;;;11.40;74.87
39267;BME280;24967;51.154;13.812;2023-04-01T08:35:23;97891.44;;;11.35;75.15
39267;BME280;24967;51.154;13.812;2023-04-01T08:37:52;97897.56;;;11.77;74.91
39267;BME280;24967;51.154;13.812;2023-04-01T08:40:37;97897.38;;;11.78;73.58
39267;BME280;24967;51.154;13.812;2023-04-01T08:43:09;97898.34;;;12.05;74.10
39267;BME280;24967;51.154;13.812;2023-04-01T08:45:56;97902.66;;;12.13;72.64
39267;BME280;24967;51.154;13.812;2023-04-01T08:48:40;97904.97;;;12.23;71.57
39267;BME280;24967;51.154;13.812;2023-04-01T08:51:17;97903.47;;;12.07;72.10
39267;BME280;24967;51.154;13.812;2023-04-01T08:53:58;97896.97;;;12.23;70.87
39267;BME280;24967;51.154;13.812;2023-04-01T08:56:33;97901.84;;;12.19;70.64
39267;BME280;24967;51.154;13.812;2023-04-01T08:59:15;97897.78;;;12.17;70.87
39267;BME280;24967;51.154;13.812;2023-04-01T09:05:03;97898.44;;;12.45;70.76
39267;BME280;24967;51.154;13.812;2023-04-01T09:07:40;97894.09;;;12.24;70.30
39267;BME280;24967;51.154;13.812;2023-04-01T09:10:23;97905.13;;;12.14;69.88
39267;BME280;24967;51.154;13.812;2023-04-01T09:13:15;97885.94;;;11.84;71.04
39267;BME280;24967;51.154;13.812;2023-04-01T09:15:55;97898.34;;;11.99;70.34
39267;BME280;24967;51.154;13.812;2023-04-01T09:18:45;97905.78;;;12.30;70.86
39267;BME280;24967;51.154;13.812;2023-04-01T09:21:29;97891.66;;;12.36;70.36
39267;BME280;24967;51.154;13.812;2023-04-01T09:24:14;97904.59;;;12.39;70.90
39267;BME280;24967;51.154;13.812;2023-04-01T09:27:00;97904.31;;;12.14;70.03
39267;BME280;24967;51.154;13.812;2023-04-01T09:29:42;97910.88;;;12.11;69.31
39267;BME280;24967;51.154;13.812;2023-04-01T09:35:20;97912.31;;;12.21;69.82
39267;BME280;24967;51.154;13.812;2023-04-01T09:37:53;97916.06;;;12.40;69.00
39267;BME280;24967;51.154;13.812;2023-04-01T09:40:34;97914.25;;;12.53;70.27
39267;BME280;24967;51.154;13.812;2023-04-01T09:43:21;97908.13;;;12.66;69.67
39267;BME280;24967;51.154;13.812;2023-04-01T09:46:00;97913.44;;;12.59;69.11
39267;BME280;24967;51.154;13.812;2023-04-01T09:48:44;97919.81;;;12.65;69.77
39267;BME280;24967;51.154;13.812;2023-04-01T09:51:24;97916.91;;;12.60;69.42
39267;BME280;24967;51.154;13.812;2023-04-01T09:54:04;97916.72;;;12.61;69.33
39267;BME280;24967;51.154;13.812;2023-04-01T09:56:40;97921.44;;;12.66;70.16
39267;BME280;24967;51.154;13.812;2023-04-01T09:59:35;97924.75;;;12.75;69.90
39267;BME280;24967;51.154;13.812;2023-04-01T10:02:32;97922.44;;;12.58;69.47
39267;BME280;24967;51.154;13.812;2023-04-01T10:05:30;97929.78;;;12.36;69.05
39267;BME280;24967;51.154;13.812;2023-04-01T10:08:36;97930.56;;;12.24;69.65
39267;BME280;24967;51.154;13.812;2023-04-01T10:11:19;97933.25;;;12.37;70.20
39267;BME280;24967;51.154;13.812;2023-04-01T10:14:06;97921.63;;;12.45;68.65
39267;BME280;24967;51.154;13.812;2023-04-01T10:16:56;97934.28;;;12.29;68.65
39267;BME280;24967;51.154;13.812;2023-04-01T10:22:50;97925.56;;;12.75;68.67
39267;BME280;24967;51.154;13.812;2023-04-01T10:26:16;97939.09;;;12.87;68.21
39267;BME280;24967;51.154;13.812;2023-04-01T10:29:07;97928.63;;;12.66;67.65
39267;BME280;24967;51.154;13.812;2023-04-01T10:32:09;97938.28;;;12.93;68.11
39267;BME280;24967;51.154;13.812;2023-04-01T10:44:08;97927.59;;;12.73;67.82
39267;BME280;24967;51.154;13.812;2023-04-01T10:47:12;97937.03;;;12.76;67.76
39267;BME280;24967;51.154;13.812;2023-04-01T10:50:13;97929.66;;;13.18;67.08
39267;BME280;24967;51.154;13.812;2023-04-01T11:02:38;97947.50;;;12.03;76.15
39267;BME280;24967;51.154;13.812;2023-04-01T11:05:29;97948.94;;;11.99;79.42
39267;BME280;24967;51.154;13.812;2023-04-01T11:11:32;97949.34;;;12.02;83.51
39267;BME280;24967;51.154;13.812;2023-04-01T11:14:23;97946.75;;;11.81;83.22
39267;BME280;24967;51.154;13.812;2023-04-01T11:17:19;97946.72;;;11.74;83.65
39267;BME280;24967;51.154;13.812;2023-04-01T11:23:24;97945.38;;;11.50;84.48
39267;BME280;24967;51.154;13.812;2023-04-01T11:26:19;97946.41;;;11.56;84.92
39267;BME280;24967;51.154;13.812;2023-04-01T11:29:22;97956.03;;;11.91;85.65
39267;BME280;24967;51.154;13.812;2023-04-01T11:31:57;97949.38;;;12.09;84.93
39267;BME280;24967;51.154;13.812;2023-04-01T11:34:37;97947.75;;;12.14;82.78
39267;BME280;24967;51.154;13.812;2023-04-01T11:37:16;97951.47;;;12.20;83.46
39267;BME280;24967;51.154;13.812;2023-04-01T11:40:02;97952.66;;;12.04;82.03
39267;BME280;24967;51.154;13.812;2023-04-01T11:42:38;97952.72;;;12.31;83.79
39267;BME280;24967;51.154;13.812;2023-04-01T11:45:16;97960.56;;;12.46;83.72
39267;BME280;24967;51.154;13.812;2023-04-01T11:48:16;97957.38;;;12.83;83.17
39267;BME280;24967;51.154;13.812;2023-04-01T11:50:58;97955.25;;;12.52;79.93
39267;BME280;24967;51.154;13.812;2023-04-01T11:53:41;97964.56;;;12.83;79.55
39267;BME280;24967;51.154;13.812;2023-04-01T11:56:17;97955.72;;;13.02;79.36
39267;BME280;24967;51.154;13.812;2023-04-01T11:59:19;97952.66;;;13.19;78.58
39267;BME280;24967;51.154;13.812;2023-04-01T12:01:56;97958.63;;;13.07;77.28
39267;BME280;24967;51.154;13.812;2023-04-01T12:04:49;97950.44;;;13.29;78.21
39267;BME280;24967;51.154;13.812;2023-04-01T12:07:32;97946.31;;;13.46;76.84
39267;BME280;24967;51.154;13.812;2023-04-01T12:10:12;97949.78;;;13.47;75.38
39267;BME280;24967;51.154;13.812;2023-04-01T12:12:44;97950.19;;;13.24;75.59
39267;BME280;24967;51.154;13.812;2023-04-01T12:15:21;97953.66;;;13.64;75.45
39267;BME280;24967;51.154;13.812;2023-04-01T12:17:56;97953.19;;;13.87;76.73
39267;BME280;24967;51.154;13.812;2023-04-01T12:20:33;97949.91;;;13.85;75.29
39267;BME280;24967;51.154;13.812;2023-04-01T12:23:12;97954.78;;;14.02;72.99
39267;BME280;24967;51.154;13.812;2023-04-01T12:26:20;97941.91;;;13.79;71.68
39267;BME280;24967;51.154;13.812;2023-04-01T12:28:59;97951.56;;;13.80;70.80
39267;BME280;24967;51.154;13.812;2023-04-01T12:31:38;97953.00;;;13.82;70.97
39267;BME280;24967;51.154;13.812;2023-04-01T12:34:43;97953.59;;;13.84;70.77
39267;BME280;24967;51.154;13.812;2023-04-01T12:37:18;97956.75;;;13.55;68.87
39267;BME280;24967;51.154;13.812;2023-04-01T12:40:06;97955.53;;;13.24;69.58
39267;BME280;24967;51.154;13.812;2023-04-01T12:42:57;97958.41;;;13.42;69.62
39267;BME280;24967;51.154;13.812;2023-04-01T12:45:29;97954.50;;;13.51;70.76
39267;BME280;24967;51.154;13.812;2023-04-01T12:48:31;97960.22;;;13.55;70.16
39267;BME280;24967;51.154;13.812;2023-04-01T12:57:10;97961.50;;;13.52;69.22
39267;BME280;24967;51.154;13.812;2023-04-01T12:59:58;97962.53;;;13.45;68.31
39267;BME280;24967;51.154;13.812;2023-04-01T13:02:44;97967.19;;;13.76;68.70
39267;BME280;24967;51.154;13.812;2023-04-01T13:05:32;97973.97;;;13.79;67.82
39267;BME280;24967;51.154;13.812;2023-04-01T13:08:22;97971.97;;;14.19;67.79
39267;BME280;24967;51.154;13.812;2023-04-01T13:11:01;97972.97;;;14.25;68.00
39267;BME280;24967;51.154;13.812;2023-04-01T13:13:59;97967.59;;;14.38;66.06
39267;BME280;24967;51.154;13.812;2023-04-01T13:16:35;97971.84;;;14.46;65.47
39267;BME280;24967;51.154;13.812;2023-04-01T13:19:06;97974.22;;;14.74;66.55
39267;BME280;24967;51.154;13.812;2023-04-01T13:21:45;97970.16;;;14.64;64.87
39267;BME280;24967;51.154;13.812;2023-04-01T13:24:26;97975.47;;;14.71;64.85
39267;BME280;24967;51.154;13.812;2023-04-01T13:27:01;97965.88;;;14.88;64.97
39267;BME280;24967;51.154;13.812;2023-04-01T13:29:34;97962.59;;;14.86;63.21
39267;BME280;24967;51.154;13.812;2023-04-01T13:32:13;97963.84;;;14.84;62.96
39267;BME280;24967;51.154;13.812;2023-04-01T13:34:53;97974.50;;;14.91;65.75
39267;BME280;24967;51.154;13.812;2023-04-01T13:37:34;97961.66;;;14.74;63.64
39267;BME280;24967;51.154;13.812;2023-04-01T13:40:23;97962.19;;;15.15;63.42
39267;BME280;24967;51.154;13.812;2023-04-01T13:42:54;97968.34;;;15.15;61.86
39267;BME280;24967;51.154;13.812;2023-04-01T13:45:24;97975.13;;;15.18;62.68
39267;BME280;24967;51.154;13.812;2023-04-01T13:48:13;97985.13;;;15.29;62.62
39267;BME280;24967;51.154;13.812;2023-04-01T13:54:00;97970.16;;;15.21;61.45
39267;BME280;24967;51.154;13.812;2023-04-01T13:56:34;97988.41;;;14.29;65.51
39267;BME280;24967;51.154;13.812;2023-04-01T13:59:14;97989.25;;;14.23;66.76
39267;BME280;24967;51.154;13.812;2023-04-01T14:01:54;97985.56;;;14.17;68.18
39267;BME280;24967;51.154;13.812;2023-04-01T14:04:49;97987.47;;;13.97;69.00
39267;BME280;24967;51.154;13.812;2023-04-01T14:07:32;97997.81;;;13.80;70.85
39267;BME280;24967;51.154;13.812;2023-04-01T14:10:19;97991.00;;;13.84;71.26
39267;BME280;24967;51.154;13.812;2023-04-01T14:12:57;97996.53;;;13.83;72.41
39267;BME280;24967;51.154;13.812;2023-04-01T14:15:39;98007.59;;;14.00;72.40
39267;BME280;24967;51.154;13.812;2023-04-01T14:21:13;98006.81;;;13.92;74.10
39267;BME280;24967;51.154;13.812;2023-04-01T14:23:55;98002.06;;;13.94;74.34